Time;durP1;ratioP1;P1;durP2;ratioP2;P2;SDS_P1;SDS_P2;PMS_P1;PMS_P2;Temp;Humidity;BMP_temperature;BMP_pressure;BME280_temperature;BME280_humidity;BME280_pressure;Samples;Min_cycle;Max_cycle;Signal;HPM_P1;HPM_P2
2022/03/06 00:00:19;;;;;;;;;;;23.40;38.60;;;;;;1586635;75;757;-65
2022/03/06 00:02:20;;;;;;;;;;;23.30;38.60;;;;;;1586527;75;688;-64
2022/03/06 00:04:22;;;;;;;;;;;23.30;38.60;;;;;;1586637;75;703;-64
2022/03/06 00:06:24;;;;;;;;;;;23.40;38.60;;;;;;1583504;73;727;-64
2022/03/06 00:08:26;;;;;;;;;;;23.40;38.60;;;;;;1586555;75;1192;-65
2022/03/06 00:10:28;;;;;;;;;;;23.30;38.60;;;;;;1586600;75;785;-66
2022/03/06 00:12:30;;;;;;;;;;;23.30;38.60;;;;;;1586518;75;720;-66
2022/03/06 00:14:32;;;;;;;;;;;23.40;38.60;;;;;;1572625;73;1928;-64
2022/03/06 00:16:34;;;;;;;;;;;23.40;38.70;;;;;;1559401;76;738;-65
2022/03/06 00:18:37;;;;;;;;;;;23.40;38.60;;;;;;1559317;76;1166;-64
2022/03/06 00:20:40;;;;;;;;;;;23.30;38.70;;;;;;1571390;73;718;-64
2022/03/06 00:22:41;;;;;;;;;;;23.40;38.70;;;;;;1542316;77;1250;-65
2022/03/06 00:24:43;;;;;;;;;;;23.30;38.60;;;;;;1559354;76;657;-65
2022/03/06 00:26:45;;;;;;;;;;;23.40;38.60;;;;;;1559406;76;799;-66
2022/03/06 00:28:47;;;;;;;;;;;23.40;38.60;;;;;;1578373;73;1140;-64
2022/03/06 00:30:50;;;;;;;;;;;23.40;38.70;;;;;;1554270;76;734;-65
2022/03/06 00:32:51;;;;;;;;;;;23.30;38.60;;;;;;1554297;76;776;-63
2022/03/06 00:34:53;;;;;;;;;;;23.40;38.60;;;;;;1559860;74;1943;-64
2022/03/06 00:36:55;;;;;;;;;;;23.30;38.70;;;;;;1561149;73;760;-65
2022/03/06 00:38:57;;;;;;;;;;;23.40;38.60;;;;;;1559359;76;1117;-63
2022/03/06 00:40:59;;;;;;;;;;;23.30;38.60;;;;;;1559311;76;717;-65
2022/03/06 00:43:01;;;;;;;;;;;23.40;38.70;;;;;;1559478;76;706;-66
2022/03/06 00:45:03;;;;;;;;;;;23.40;38.70;;;;;;1559327;76;555;-65
2022/03/06 00:47:05;;;;;;;;;;;23.40;38.70;;;;;;1584047;73;816;-66
2022/03/06 00:49:07;;;;;;;;;;;23.40;38.70;;;;;;1586489;75;1121;-65
2022/03/06 00:51:09;;;;;;;;;;;23.40;38.70;;;;;;1564425;73;690;-65
2022/03/06 00:53:11;;;;;;;;;;;23.40;38.80;;;;;;1559375;76;782;-67
2022/03/06 00:55:13;;;;;;;;;;;23.30;38.90;;;;;;1559314;76;1935;-65
2022/03/06 00:57:14;;;;;;;;;;;23.30;38.80;;;;;;1559423;76;1107;-66
2022/03/06 00:59:16;;;;;;;;;;;23.40;38.70;;;;;;1582057;73;760;-65
2022/03/06 01:01:18;;;;;;;;;;;23.50;38.90;;;;;;1586559;75;764;-65
2022/03/06 01:03:20;;;;;;;;;;;23.50;39.00;;;;;;1586464;75;756;-65
2022/03/06 01:05:22;;;;;;;;;;;23.40;38.90;;;;;;1579118;75;682;-65
2022/03/06 01:07:24;;;;;;;;;;;23.40;38.90;;;;;;1581035;73;1145;-66
2022/03/06 01:09:26;;;;;;;;;;;23.40;38.80;;;;;;1579965;75;702;-64
2022/03/06 01:11:28;;;;;;;;;;;23.50;38.90;;;;;;1565812;75;692;-67
2022/03/06 01:13:30;;;;;;;;;;;23.50;38.90;;;;;;1565658;75;787;-64
2022/03/06 01:15:32;;;;;;;;;;;23.50;39.00;;;;;;1566162;73;1939;-63
2022/03/06 01:17:34;;;;;;;;;;;23.40;38.80;;;;;;1570111;75;1179;-66
2022/03/06 01:19:35;;;;;;;;;;;23.50;38.90;;;;;;1566283;73;773;-65
2022/03/06 01:21:37;;;;;;;;;;;23.40;38.90;;;;;;1565622;75;786;-64
2022/03/06 01:23:39;;;;;;;;;;;23.50;39.00;;;;;;1570280;75;714;-68
2022/03/06 01:25:41;;;;;;;;;;;23.40;38.90;;;;;;1564278;75;641;-66
2022/03/06 01:27:43;;;;;;;;;;;23.50;39.00;;;;;;1568508;73;1135;-65
2022/03/06 01:29:45;;;;;;;;;;;23.40;38.90;;;;;;1565119;75;733;-66
2022/03/06 01:31:47;;;;;;;;;;;23.40;38.90;;;;;;1565601;75;753;-65
2022/03/06 01:33:49;;;;;;;;;;;23.50;39.00;;;;;;1565710;75;796;-65
2022/03/06 01:35:50;;;;;;;;;;;23.50;39.00;;;;;;1568192;73;1919;-65
2022/03/06 01:37:52;;;;;;;;;;;23.40;38.90;;;;;;1568532;73;1125;-65
2022/03/06 01:39:54;;;;;;;;;;;23.50;39.00;;;;;;1579327;75;684;-64
2022/03/06 01:41:56;;;;;;;;;;;23.40;38.90;;;;;;1571293;75;732;-65
2022/03/06 01:43:58;;;;;;;;;;;23.40;39.00;;;;;;1578944;75;959;-66
2022/03/06 01:46:00;;;;;;;;;;;23.40;39.00;;;;;;1575806;75;705;-65
2022/03/06 01:48:03;;;;;;;;;;;23.40;39.10;;;;;;1576231;73;1102;-65
2022/03/06 01:50:06;;;;;;;;;;;23.40;39.00;;;;;;1582221;73;770;-65
2022/03/06 01:52:08;;;;;;;;;;;23.50;39.10;;;;;;1584789;75;730;-65
2022/03/06 01:54:10;;;;;;;;;;;23.30;39.00;;;;;;1584594;75;769;-65
2022/03/06 01:56:12;;;;;;;;;;;23.40;39.00;;;;;;1582718;75;1941;-65
2022/03/06 01:58:14;;;;;;;;;;;23.40;39.00;;;;;;1581100;73;1164;-65
2022/03/06 02:00:17;;;;;;;;;;;23.30;39.10;;;;;;1584417;75;721;-65
2022/03/06 02:02:19;;;;;;;;;;;23.40;39.10;;;;;;1575059;75;1033;-66
2022/03/06 02:04:21;;;;;;;;;;;23.40;39.10;;;;;;1581757;75;708;-66
2022/03/06 02:06:24;;;;;;;;;;;23.30;39.10;;;;;;1582652;75;665;-65
2022/03/06 02:08:26;;;;;;;;;;;23.30;39.10;;;;;;1582444;73;1176;-66
2022/03/06 02:10:28;;;;;;;;;;;23.30;39.10;;;;;;1586008;75;872;-66
2022/03/06 02:12:29;;;;;;;;;;;23.30;39.20;;;;;;1582295;75;769;-66
2022/03/06 02:14:31;;;;;;;;;;;23.30;39.20;;;;;;1578871;73;1958;-65
2022/03/06 02:16:33;;;;;;;;;;;23.40;39.20;;;;;;1576749;75;794;-66
2022/03/06 02:18:35;;;;;;;;;;;23.30;39.30;;;;;;1575889;75;1166;-66
2022/03/06 02:20:38;;;;;;;;;;;23.30;39.30;;;;;;1582296;73;746;-65
2022/03/06 02:22:40;;;;;;;;;;;23.40;39.30;;;;;;1580244;75;709;-65
2022/03/06 02:24:42;;;;;;;;;;;23.30;39.30;;;;;;1576976;75;729;-66
2022/03/06 02:26:44;;;;;;;;;;;23.30;39.40;;;;;;1585936;75;767;-65
2022/03/06 02:28:46;;;;;;;;;;;23.30;39.40;;;;;;1579032;73;1128;-66
2022/03/06 02:30:48;;;;;;;;;;;23.40;39.40;;;;;;1585895;75;777;-64
2022/03/06 02:32:50;;;;;;;;;;;23.40;39.40;;;;;;1584744;75;779;-64
2022/03/06 02:34:52;;;;;;;;;;;23.40;39.40;;;;;;1582548;74;1929;-64
2022/03/06 02:36:54;;;;;;;;;;;23.30;39.40;;;;;;1579955;73;806;-64
2022/03/06 02:38:56;;;;;;;;;;;23.40;39.50;;;;;;1575011;75;1255;-67
2022/03/06 02:40:58;;;;;;;;;;;23.30;39.40;;;;;;1584716;75;727;-67
2022/03/06 02:43:00;;;;;;;;;;;23.30;39.50;;;;;;1585831;75;699;-67
2022/03/06 02:45:04;;;;;;;;;;;23.40;39.50;;;;;;1581217;75;714;-66
2022/03/06 02:47:06;;;;;;;;;;;23.40;39.60;;;;;;1586033;73;1704;-67
2022/03/06 02:49:09;;;;;;;;;;;23.40;39.70;;;;;;1585742;75;1139;-67
2022/03/06 02:51:12;;;;;;;;;;;23.40;39.60;;;;;;1586358;73;867;-67
2022/03/06 02:53:14;;;;;;;;;;;23.50;39.80;;;;;;1585780;75;774;-69
2022/03/06 02:55:16;;;;;;;;;;;23.40;39.60;;;;;;1581348;75;1917;-69
2022/03/06 02:57:18;;;;;;;;;;;23.40;39.60;;;;;;1585808;75;1133;-66
2022/03/06 02:59:20;;;;;;;;;;;23.50;39.80;;;;;;1576153;73;730;-66
2022/03/06 03:01:22;;;;;;;;;;;23.40;39.70;;;;;;1584174;75;715;-66
2022/03/06 03:03:24;;;;;;;;;;;23.50;39.80;;;;;;1572428;75;791;-66
2022/03/06 03:05:26;;;;;;;;;;;23.50;39.80;;;;;;1583771;75;728;-66
2022/03/06 03:07:28;;;;;;;;;;;23.50;39.80;;;;;;1577987;73;1115;-67
2022/03/06 03:09:30;;;;;;;;;;;23.50;39.80;;;;;;1575843;75;747;-68
2022/03/06 03:11:32;;;;;;;;;;;23.40;39.70;;;;;;1572272;75;709;-68
2022/03/06 03:13:34;;;;;;;;;;;23.40;39.70;;;;;;1557772;75;779;-66
2022/03/06 03:15:36;;;;;;;;;;;23.50;39.80;;;;;;1567455;73;1928;-66
2022/03/06 03:17:38;;;;;;;;;;;23.40;39.80;;;;;;1586367;75;1149;-67
2022/03/06 03:19:40;;;;;;;;;;;23.40;39.80;;;;;;1587030;73;860;-68
2022/03/06 03:21:42;;;;;;;;;;;23.40;39.70;;;;;;1586504;75;803;-69
2022/03/06 03:23:43;;;;;;;;;;;23.50;39.90;;;;;;1586275;75;722;-66
2022/03/06 03:25:45;;;;;;;;;;;23.40;39.80;;;;;;1586362;75;738;-66
2022/03/06 03:27:47;;;;;;;;;;;23.40;39.80;;;;;;1586471;75;1149;-66
2022/03/06 03:29:49;;;;;;;;;;;23.50;39.90;;;;;;1571332;73;784;-67
2022/03/06 03:31:51;;;;;;;;;;;23.50;40.00;;;;;;1586357;75;749;-68
2022/03/06 03:33:53;;;;;;;;;;;23.60;40.00;;;;;;1586514;75;695;-65
2022/03/06 03:35:56;;;;;;;;;;;23.60;40.00;;;;;;1586235;75;1927;-66
2022/03/06 03:37:58;;;;;;;;;;;23.70;40.10;;;;;;1586407;75;1137;-67
2022/03/06 03:40:00;;;;;;;;;;;23.70;40.00;;;;;;1586495;73;720;-66
2022/03/06 03:42:02;;;;;;;;;;;23.70;40.00;;;;;;1586417;75;772;-66
2022/03/06 03:44:04;;;;;;;;;;;23.70;40.00;;;;;;1586484;75;564;-65
2022/03/06 03:46:08;;;;;;;;;;;23.80;39.90;;;;;;1586144;75;787;-65
2022/03/06 03:48:10;;;;;;;;;;;23.90;40.00;;;;;;1581709;73;1145;-66
2022/03/06 03:50:12;;;;;;;;;;;23.80;39.90;;;;;;1575084;73;684;-66
2022/03/06 03:52:14;;;;;;;;;;;23.80;39.90;;;;;;1570028;73;638;-65
2022/03/06 03:54:16;;;;;;;;;;;23.90;40.00;;;;;;1565604;75;702;-68
2022/03/06 03:56:18;;;;;;;;;;;23.90;40.00;;;;;;1576609;75;1934;-66
2022/03/06 03:58:20;;;;;;;;;;;23.80;40.00;;;;;;1570888;75;1138;-66
2022/03/06 04:00:22;;;;;;;;;;;23.80;40.10;;;;;;1578662;73;1068;-66
2022/03/06 04:02:24;;;;;;;;;;;23.80;40.10;;;;;;1572307;75;800;-66
2022/03/06 04:04:26;;;;;;;;;;;23.80;40.20;;;;;;1572309;75;728;-65
2022/03/06 04:06:28;;;;;;;;;;;23.90;40.30;;;;;;1573662;75;708;-66
2022/03/06 04:08:30;;;;;;;;;;;23.80;40.30;;;;;;1571257;73;1142;-66
2022/03/06 04:10:31;;;;;;;;;;;23.80;40.30;;;;;;1566942;75;722;-64
2022/03/06 04:12:33;;;;;;;;;;;23.70;40.50;;;;;;1560520;75;700;-65
2022/03/06 04:14:35;;;;;;;;;;;23.80;40.50;;;;;;1559001;76;726;-65
2022/03/06 04:16:37;;;;;;;;;;;23.80;40.50;;;;;;1562682;73;1933;-66
2022/03/06 04:18:39;;;;;;;;;;;23.80;40.40;;;;;;1586311;75;1122;-64
2022/03/06 04:20:41;;;;;;;;;;;23.80;40.40;;;;;;1586863;73;721;-64
2022/03/06 04:22:43;;;;;;;;;;;23.80;40.50;;;;;;1586217;75;738;-65
2022/03/06 04:24:44;;;;;;;;;;;23.80;40.50;;;;;;1586110;75;787;-66
2022/03/06 04:26:46;;;;;;;;;;;23.80;40.50;;;;;;1572061;75;702;-64
2022/03/06 04:28:48;;;;;;;;;;;23.80;40.50;;;;;;1582341;73;1179;-65
2022/03/06 04:30:50;;;;;;;;;;;23.80;40.50;;;;;;1586212;75;789;-66
2022/03/06 04:32:52;;;;;;;;;;;23.80;40.50;;;;;;1586207;75;788;-66
2022/03/06 04:34:54;;;;;;;;;;;23.90;40.60;;;;;;1586199;75;819;-66
2022/03/06 04:36:56;;;;;;;;;;;23.90;40.60;;;;;;1584403;73;1925;-66
2022/03/06 04:38:58;;;;;;;;;;;23.90;40.50;;;;;;1567648;75;1106;-66
2022/03/06 04:41:00;;;;;;;;;;;23.80;40.50;;;;;;1557844;75;703;-64
2022/03/06 04:43:03;;;;;;;;;;;23.80;40.50;;;;;;1557787;75;719;-65
2022/03/06 04:45:06;;;;;;;;;;;23.80;40.50;;;;;;1557762;75;626;-68
2022/03/06 04:47:07;;;;;;;;;;;23.80;40.50;;;;;;1584274;73;791;-66
2022/03/06 04:49:09;;;;;;;;;;;23.90;40.60;;;;;;1586166;75;1082;-65
2022/03/06 04:51:11;;;;;;;;;;;23.80;40.50;;;;;;1587227;73;791;-67
2022/03/06 04:53:13;;;;;;;;;;;23.90;40.50;;;;;;1586135;75;790;-66
2022/03/06 04:55:15;;;;;;;;;;;23.90;40.50;;;;;;1586232;75;770;-65
2022/03/06 04:57:17;;;;;;;;;;;23.90;40.60;;;;;;1586217;75;1934;-64
2022/03/06 04:59:19;;;;;;;;;;;23.90;40.50;;;;;;1586880;73;707;-64
2022/03/06 05:01:20;;;;;;;;;;;23.80;40.50;;;;;;1586210;75;707;-64
2022/03/06 05:03:22;;;;;;;;;;;23.90;40.60;;;;;;1586284;75;770;-64
2022/03/06 05:05:24;;;;;;;;;;;23.80;40.50;;;;;;1586006;75;761;-66
2022/03/06 05:07:26;;;;;;;;;;;23.90;40.50;;;;;;1587016;73;1166;-65
2022/03/06 05:09:28;;;;;;;;;;;23.90;40.50;;;;;;1586273;75;781;-64
2022/03/06 05:11:31;;;;;;;;;;;23.90;40.50;;;;;;1584860;73;726;-65
2022/03/06 05:13:33;;;;;;;;;;;23.90;40.50;;;;;;1585858;75;724;-65
2022/03/06 05:15:35;;;;;;;;;;;23.90;40.50;;;;;;1586134;75;1933;-67
2022/03/06 05:17:37;;;;;;;;;;;23.90;40.40;;;;;;1586181;75;1147;-65
2022/03/06 05:19:39;;;;;;;;;;;23.90;40.40;;;;;;1584953;73;669;-68
2022/03/06 05:21:41;;;;;;;;;;;24.00;40.40;;;;;;1559016;76;789;-65
2022/03/06 05:23:43;;;;;;;;;;;24.00;40.50;;;;;;1559140;76;709;-66
2022/03/06 05:25:45;;;;;;;;;;;23.90;40.50;;;;;;1559048;76;627;-66
2022/03/06 05:27:47;;;;;;;;;;;23.90;40.50;;;;;;1568942;73;1231;-66
2022/03/06 05:29:49;;;;;;;;;;;24.00;40.50;;;;;;1586297;75;700;-66
2022/03/06 05:31:51;;;;;;;;;;;24.00;40.40;;;;;;1586286;75;702;-66
2022/03/06 05:33:52;;;;;;;;;;;24.00;40.40;;;;;;1586137;75;823;-66
2022/03/06 05:35:54;;;;;;;;;;;24.00;40.40;;;;;;1586912;73;1951;-66
2022/03/06 05:37:56;;;;;;;;;;;24.00;40.30;;;;;;1586245;75;1150;-67
2022/03/06 05:39:58;;;;;;;;;;;24.00;40.20;;;;;;1586071;75;808;-67
2022/03/06 05:42:00;;;;;;;;;;;24.00;40.20;;;;;;1586173;75;804;-67
2022/03/06 05:44:02;;;;;;;;;;;24.10;40.30;;;;;;1587012;73;714;-65
2022/03/06 05:46:04;;;;;;;;;;;24.10;40.30;;;;;;1586157;75;666;-66
2022/03/06 05:48:06;;;;;;;;;;;24.10;40.20;;;;;;1586210;75;1118;-66
2022/03/06 05:50:08;;;;;;;;;;;24.10;40.20;;;;;;1577974;73;777;-67
2022/03/06 05:52:10;;;;;;;;;;;24.10;40.20;;;;;;1559009;76;800;-66
2022/03/06 05:54:12;;;;;;;;;;;24.00;40.10;;;;;;1559071;76;700;-65
2022/03/06 05:56:14;;;;;;;;;;;24.10;40.20;;;;;;1558879;76;1942;-66
2022/03/06 05:58:15;;;;;;;;;;;24.10;40.30;;;;;;1579980;73;1145;-68
2022/03/06 06:00:18;;;;;;;;;;;24.10;40.60;;;;;;1564164;75;723;-68
2022/03/06 06:02:19;;;;;;;;;;;24.00;40.50;;;;;;1548074;75;788;-66
2022/03/06 06:04:21;;;;;;;;;;;24.00;40.60;;;;;;1548191;77;767;-65
2022/03/06 06:06:24;;;;;;;;;;;24.00;40.50;;;;;;1548065;77;762;-65
2022/03/06 06:08:26;;;;;;;;;;;24.00;40.50;;;;;;1586900;73;1137;-64
2022/03/06 06:10:28;;;;;;;;;;;24.10;40.50;;;;;;1586304;75;715;-65
2022/03/06 06:12:29;;;;;;;;;;;24.10;40.50;;;;;;1586053;75;691;-64
2022/03/06 06:14:31;;;;;;;;;;;24.10;40.40;;;;;;1586305;75;788;-65
2022/03/06 06:16:33;;;;;;;;;;;24.10;40.30;;;;;;1586937;73;1915;-64
2022/03/06 06:18:35;;;;;;;;;;;24.20;40.40;;;;;;1583996;75;1117;-66
2022/03/06 06:20:37;;;;;;;;;;;24.20;40.30;;;;;;1586002;73;694;-66
2022/03/06 06:22:39;;;;;;;;;;;24.20;40.20;;;;;;1579025;73;685;-67
2022/03/06 06:24:41;;;;;;;;;;;24.30;40.10;;;;;;1576880;75;738;-67
2022/03/06 06:26:43;;;;;;;;;;;24.20;39.80;;;;;;1572757;75;703;-68
2022/03/06 06:28:45;;;;;;;;;;;24.30;39.70;;;;;;1586017;75;1142;-66
2022/03/06 06:30:47;;;;;;;;;;;24.30;39.70;;;;;;1586102;73;726;-71
2022/03/06 06:32:49;;;;;;;;;;;24.30;39.60;;;;;;1564869;75;735;-67
2022/03/06 06:34:51;;;;;;;;;;;24.30;39.70;;;;;;1568432;75;675;-67
2022/03/06 06:36:57;;;;;;;;;;;24.30;39.60;;;;;;1577619;75;1948;-65
2022/03/06 06:38:57;;;;;;;;;;;24.30;39.60;;;;;;1586114;73;1546;-65
2022/03/06 06:40:58;;;;;;;;;;;24.30;39.70;;;;;;1586064;75;713;-65
2022/03/06 06:43:00;;;;;;;;;;;24.30;39.60;;;;;;1586316;75;757;-63
2022/03/06 06:45:02;;;;;;;;;;;24.30;39.60;;;;;;1586195;75;793;-66
2022/03/06 06:47:04;;;;;;;;;;;24.30;39.60;;;;;;1587019;73;783;-66
2022/03/06 06:49:06;;;;;;;;;;;24.30;39.60;;;;;;1586302;75;1128;-66
2022/03/06 06:51:08;;;;;;;;;;;24.30;39.50;;;;;;1586946;73;724;-67
2022/03/06 06:53:10;;;;;;;;;;;24.30;39.50;;;;;;1569034;75;723;-63
2022/03/06 06:55:12;;;;;;;;;;;24.30;39.60;;;;;;1564440;75;778;-64
2022/03/06 06:57:14;;;;;;;;;;;24.30;39.70;;;;;;1564659;73;1928;-62
2022/03/06 06:59:16;;;;;;;;;;;24.20;39.70;;;;;;1565470;75;1139;-65
2022/03/06 07:01:18;;;;;;;;;;;24.20;39.80;;;;;;1563744;75;779;-66
2022/03/06 07:03:20;;;;;;;;;;;24.20;39.90;;;;;;1572277;75;682;-65
2022/03/06 07:05:22;;;;;;;;;;;24.20;40.00;;;;;;1568410;75;797;-66
2022/03/06 07:07:24;;;;;;;;;;;24.20;39.90;;;;;;1568324;73;1182;-65
2022/03/06 07:09:26;;;;;;;;;;;24.20;40.10;;;;;;1562510;75;687;-66
2022/03/06 07:11:27;;;;;;;;;;;24.20;40.10;;;;;;1568105;75;810;-66
2022/03/06 07:13:29;;;;;;;;;;;24.20;40.10;;;;;;1573094;74;711;-65
2022/03/06 07:15:32;;;;;;;;;;;24.20;40.00;;;;;;1573980;75;720;-64
2022/03/06 07:17:34;;;;;;;;;;;24.30;40.00;;;;;;1582773;73;1905;-65
2022/03/06 07:19:36;;;;;;;;;;;24.30;39.80;;;;;;1585883;73;611;-65
2022/03/06 07:21:38;;;;;;;;;;;24.30;39.50;;;;;;1572429;75;729;-66
2022/03/06 07:23:40;;;;;;;;;;;24.40;39.40;;;;;;1557865;75;783;-66
2022/03/06 07:25:42;;;;;;;;;;;24.40;39.20;;;;;;1557758;75;707;-66
2022/03/06 07:27:44;;;;;;;;;;;24.40;39.00;;;;;;1566684;73;1151;-65
2022/03/06 07:29:45;;;;;;;;;;;24.50;39.00;;;;;;1586256;75;637;-66
2022/03/06 07:31:47;;;;;;;;;;;24.50;38.90;;;;;;1586338;74;730;-66
2022/03/06 07:33:49;;;;;;;;;;;24.50;38.90;;;;;;1586356;74;789;-67
2022/03/06 07:35:51;;;;;;;;;;;24.40;38.70;;;;;;1586132;75;810;-64
2022/03/06 07:37:53;;;;;;;;;;;24.40;38.70;;;;;;1572045;73;1899;-65
2022/03/06 07:39:55;;;;;;;;;;;24.40;38.70;;;;;;1559214;76;778;-64
2022/03/06 07:41:57;;;;;;;;;;;24.30;38.70;;;;;;1572450;75;803;-65
2022/03/06 07:43:58;;;;;;;;;;;24.30;38.60;;;;;;1576521;75;711;-66
2022/03/06 07:46:00;;;;;;;;;;;24.30;38.60;;;;;;1587015;73;692;-65
2022/03/06 07:48:03;;;;;;;;;;;24.40;38.60;;;;;;1586189;75;1078;-66
2022/03/06 07:50:07;;;;;;;;;;;24.40;38.60;;;;;;1586423;73;698;-64
2022/03/06 07:52:09;;;;;;;;;;;24.40;38.60;;;;;;1586134;75;773;-66
2022/03/06 07:54:14;;;;;;;;;;;24.40;38.50;;;;;;1586225;75;637;-64
2022/03/06 07:56:14;;;;;;;;;;;24.40;38.50;;;;;;1581832;73;1602;-65
2022/03/06 07:58:16;;;;;;;;;;;24.50;38.60;;;;;;1585676;75;1947;-66
2022/03/06 08:00:18;;;;;;;;;;;24.50;38.50;;;;;;1572326;75;719;-65
2022/03/06 08:02:20;;;;;;;;;;;24.50;38.50;;;;;;1579379;75;774;-66
2022/03/06 08:04:22;;;;;;;;;;;24.40;38.40;;;;;;1587066;73;801;-67
2022/03/06 08:06:24;;;;;;;;;;;24.40;38.40;;;;;;1585943;75;635;-66
2022/03/06 08:08:25;;;;;;;;;;;24.50;38.40;;;;;;1585768;75;1139;-67
2022/03/06 08:10:27;;;;;;;;;;;24.40;38.20;;;;;;1574082;73;731;-68
2022/03/06 08:12:29;;;;;;;;;;;24.40;38.20;;;;;;1578538;75;771;-66
2022/03/06 08:14:31;;;;;;;;;;;24.50;38.20;;;;;;1585746;75;720;-65
2022/03/06 08:16:33;;;;;;;;;;;24.50;38.20;;;;;;1586073;75;776;-65
2022/03/06 08:18:35;;;;;;;;;;;24.50;38.10;;;;;;1590525;73;1937;-65
2022/03/06 08:20:37;;;;;;;;;;;24.50;38.10;;;;;;1587735;73;800;-65
2022/03/06 08:22:39;;;;;;;;;;;24.50;38.00;;;;;;1572150;75;820;-66
2022/03/06 08:24:41;;;;;;;;;;;24.50;38.00;;;;;;1573029;75;786;-67
2022/03/06 08:26:43;;;;;;;;;;;24.50;38.00;;;;;;1580775;75;771;-65
2022/03/06 08:28:45;;;;;;;;;;;24.60;38.00;;;;;;1570729;75;1297;-65
2022/03/06 08:30:47;;;;;;;;;;;24.60;37.80;;;;;;1572024;73;655;-66
2022/03/06 08:32:49;;;;;;;;;;;24.60;37.80;;;;;;1574615;75;701;-68
2022/03/06 08:34:53;;;;;;;;;;;24.60;37.80;;;;;;1566055;75;787;-65
2022/03/06 08:36:55;;;;;;;;;;;24.60;37.80;;;;;;1571833;73;1928;-66
2022/03/06 08:38:57;;;;;;;;;;;24.50;37.70;;;;;;1575251;75;1114;-64
2022/03/06 08:40:59;;;;;;;;;;;24.60;37.60;;;;;;1581070;75;730;-65
2022/03/06 08:43:01;;;;;;;;;;;24.60;37.60;;;;;;1578171;75;777;-65
2022/03/06 08:45:03;;;;;;;;;;;24.60;37.60;;;;;;1570893;73;698;-63
2022/03/06 08:47:05;;;;;;;;;;;24.60;37.60;;;;;;1573274;75;883;-65
2022/03/06 08:49:07;;;;;;;;;;;24.60;37.60;;;;;;1573380;75;1093;-65
2022/03/06 08:51:09;;;;;;;;;;;24.60;37.60;;;;;;1576054;73;724;-66
2022/03/06 08:53:11;;;;;;;;;;;24.60;37.50;;;;;;1583001;75;700;-65
2022/03/06 08:55:12;;;;;;;;;;;24.70;37.60;;;;;;1568707;75;773;-64
2022/03/06 08:57:14;;;;;;;;;;;24.70;37.60;;;;;;1571191;75;1933;-67
2022/03/06 08:59:19;;;;;;;;;;;24.70;37.60;;;;;;1579368;73;1093;-67
2022/03/06 09:01:20;;;;;;;;;;;24.70;37.50;;;;;;1579585;74;1620;-66
2022/03/06 09:03:22;;;;;;;;;;;24.70;37.50;;;;;;1579198;75;688;-65
2022/03/06 09:05:24;;;;;;;;;;;24.70;37.50;;;;;;1581786;75;690;-65
2022/03/06 09:07:27;;;;;;;;;;;24.70;37.50;;;;;;1579642;75;1164;-65
2022/03/06 09:09:29;;;;;;;;;;;24.70;37.40;;;;;;1574925;73;751;-68
2022/03/06 09:11:31;;;;;;;;;;;24.70;37.40;;;;;;1569106;75;681;-65
2022/03/06 09:13:34;;;;;;;;;;;24.70;37.40;;;;;;1581000;75;724;-66
2022/03/06 09:15:36;;;;;;;;;;;24.70;37.30;;;;;;1585736;75;701;-65
2022/03/06 09:17:38;;;;;;;;;;;24.70;37.20;;;;;;1585782;73;1937;-66
2022/03/06 09:19:40;;;;;;;;;;;24.70;37.20;;;;;;1585430;73;811;-66
2022/03/06 09:21:43;;;;;;;;;;;24.70;37.20;;;;;;1582718;75;783;-71
2022/03/06 09:23:45;;;;;;;;;;;24.70;37.10;;;;;;1574924;75;820;-66
2022/03/06 09:25:47;;;;;;;;;;;24.70;37.10;;;;;;1581643;75;717;-65
2022/03/06 09:27:49;;;;;;;;;;;24.70;37.10;;;;;;1579974;75;1302;-66
2022/03/06 09:29:50;;;;;;;;;;;24.70;37.10;;;;;;1580964;73;765;-66
2022/03/06 09:31:52;;;;;;;;;;;24.80;37.10;;;;;;1581657;74;769;-66
2022/03/06 09:33:54;;;;;;;;;;;24.70;37.10;;;;;;1585982;75;734;-65
2022/03/06 09:35:56;;;;;;;;;;;24.70;37.00;;;;;;1585902;75;726;-64
2022/03/06 09:37:58;;;;;;;;;;;24.70;37.00;;;;;;1585755;75;1929;-65
2022/03/06 09:40:00;;;;;;;;;;;24.70;37.00;;;;;;1586736;73;765;-67
2022/03/06 09:42:02;;;;;;;;;;;24.70;37.00;;;;;;1585998;75;730;-66
2022/03/06 09:44:04;;;;;;;;;;;24.60;36.90;;;;;;1585749;75;758;-65
2022/03/06 09:46:06;;;;;;;;;;;24.70;37.10;;;;;;1585903;75;625;-66
2022/03/06 09:48:09;;;;;;;;;;;24.70;37.00;;;;;;1586509;73;1132;-66
2022/03/06 09:50:12;;;;;;;;;;;24.70;37.00;;;;;;1586354;73;648;-64
2022/03/06 09:52:14;;;;;;;;;;;24.70;37.00;;;;;;1580474;75;699;-67
2022/03/06 09:54:20;;;;;;;;;;;24.70;37.00;;;;;;1577475;75;748;-66
2022/03/06 09:56:19;;;;;;;;;;;24.70;37.00;;;;;;1575560;75;1243;-65
2022/03/06 09:58:21;;;;;;;;;;;24.80;37.00;;;;;;1577131;73;1942;-65
2022/03/06 10:00:23;;;;;;;;;;;24.80;37.00;;;;;;1569607;75;690;-66
2022/03/06 10:02:25;;;;;;;;;;;24.80;36.90;;;;;;1582947;75;694;-65
2022/03/06 10:04:29;;;;;;;;;;;24.80;36.90;;;;;;1581979;75;728;-67
2022/03/06 10:06:31;;;;;;;;;;;24.70;36.80;;;;;;1578141;75;1083;-65
2022/03/06 10:08:34;;;;;;;;;;;24.70;36.90;;;;;;1585474;73;1145;-65
2022/03/06 10:10:36;;;;;;;;;;;24.80;36.80;;;;;;1573390;75;737;-65
2022/03/06 10:12:40;;;;;;;;;;;24.70;36.80;;;;;;1578500;75;810;-65
2022/03/06 10:14:42;;;;;;;;;;;24.80;36.70;;;;;;1576253;75;1236;-66
2022/03/06 10:16:44;;;;;;;;;;;24.80;36.70;;;;;;1580413;73;741;-66
2022/03/06 10:18:49;;;;;;;;;;;24.70;36.70;;;;;;1574865;75;1944;-67
2022/03/06 10:20:51;;;;;;;;;;;24.80;36.70;;;;;;1578437;73;708;-66
2022/03/06 10:22:53;;;;;;;;;;;24.80;36.70;;;;;;1580233;75;798;-65
2022/03/06 10:24:56;;;;;;;;;;;24.80;36.60;;;;;;1585004;75;725;-64
2022/03/06 10:26:58;;;;;;;;;;;24.80;36.60;;;;;;1585769;75;678;-65
2022/03/06 10:29:01;;;;;;;;;;;24.90;36.70;;;;;;1581723;73;1180;-66
2022/03/06 10:31:04;;;;;;;;;;;24.80;36.60;;;;;;1579225;75;717;-66
2022/03/06 10:33:07;;;;;;;;;;;24.80;36.60;;;;;;1570691;75;950;-64
2022/03/06 10:35:09;;;;;;;;;;;24.90;36.60;;;;;;1579560;75;723;-65
2022/03/06 10:37:14;;;;;;;;;;;24.80;36.50;;;;;;1580048;73;711;-66
2022/03/06 10:39:20;;;;;;;;;;;24.80;36.50;;;;;;1583397;75;1943;-66
2022/03/06 10:41:22;;;;;;;;;;;24.90;36.60;;;;;;1576053;75;913;-65
2022/03/06 10:43:25;;;;;;;;;;;24.80;36.40;;;;;;1579074;75;709;-65
2022/03/06 10:45:27;;;;;;;;;;;24.90;36.50;;;;;;1581361;73;681;-66
2022/03/06 10:47:28;;;;;;;;;;;24.90;36.50;;;;;;1584617;75;1145;-65
2022/03/06 10:49:32;;;;;;;;;;;24.90;36.40;;;;;;1561652;74;1194;-70
2022/03/06 10:51:35;;;;;;;;;;;24.90;36.50;;;;;;1579110;75;707;-65
2022/03/06 10:53:37;;;;;;;;;;;24.90;36.30;;;;;;1580889;75;1111;-65
2022/03/06 10:55:39;;;;;;;;;;;24.90;36.30;;;;;;1582678;75;661;-66
2022/03/06 10:57:42;;;;;;;;;;;24.90;36.30;;;;;;1585472;75;1949;-64
2022/03/06 10:59:44;;;;;;;;;;;24.90;36.20;;;;;;1582580;75;739;-68
2022/03/06 11:01:48;;;;;;;;;;;24.80;36.00;;;;;;1576201;75;662;-64
2022/03/06 11:03:50;;;;;;;;;;;24.90;36.10;;;;;;1578699;75;720;-65
2022/03/06 11:05:52;;;;;;;;;;;24.90;36.30;;;;;;1578298;75;713;-63
2022/03/06 11:07:54;;;;;;;;;;;24.90;36.20;;;;;;1581839;73;1188;-63
2022/03/06 11:09:57;;;;;;;;;;;24.80;36.20;;;;;;1576620;75;687;-63
2022/03/06 11:11:59;;;;;;;;;;;24.80;36.10;;;;;;1581113;75;749;-65
2022/03/06 11:14:00;;;;;;;;;;;24.80;36.20;;;;;;1582614;73;785;-68
2022/03/06 11:16:02;;;;;;;;;;;24.90;36.30;;;;;;1585427;75;776;-64
2022/03/06 11:18:06;;;;;;;;;;;24.80;36.20;;;;;;1574621;75;1962;-63
2022/03/06 11:20:08;;;;;;;;;;;24.80;36.20;;;;;;1578916;73;681;-64
2022/03/06 11:22:22;;;;;;;;;;;24.80;36.20;;;;;;1575697;75;642;-64
2022/03/06 11:24:22;;;;;;;;;;;24.80;36.20;;;;;;1584541;74;1256;-65
2022/03/06 11:26:37;;;;;;;;;;;24.80;36.10;;;;;;1585642;75;545;-64
2022/03/06 11:28:58;;;;;;;;;;;24.70;36.10;;;;;;1583571;73;1968;-63
2022/03/06 11:31:02;;;;;;;;;;;24.80;36.10;;;;;;1579472;74;708;-62
2022/03/06 11:33:06;;;;;;;;;;;24.70;36.10;;;;;;1563996;75;888;-62
2022/03/06 11:35:12;;;;;;;;;;;24.70;36.00;;;;;;1572519;75;1081;-62
2022/03/06 11:37:19;;;;;;;;;;;24.70;36.00;;;;;;1582540;73;690;-65
2022/03/06 11:39:34;;;;;;;;;;;24.70;36.00;;;;;;1584002;75;1961;-62
2022/03/06 11:41:37;;;;;;;;;;;24.70;36.00;;;;;;1585561;75;755;-64
2022/03/06 11:43:47;;;;;;;;;;;24.70;36.00;;;;;;1585725;75;758;-66
2022/03/06 11:45:49;;;;;;;;;;;24.70;36.10;;;;;;1582944;73;706;-66
2022/03/06 11:47:51;;;;;;;;;;;24.70;36.00;;;;;;1572373;75;1102;-64
2022/03/06 11:49:53;;;;;;;;;;;24.70;36.00;;;;;;1568818;73;790;-65
2022/03/06 11:51:55;;;;;;;;;;;24.70;35.90;;;;;;1570637;75;814;-64
2022/03/06 11:53:58;;;;;;;;;;;24.70;36.00;;;;;;1583625;75;698;-65
2022/03/06 11:56:00;;;;;;;;;;;24.70;36.00;;;;;;1568809;75;770;-63
2022/03/06 11:58:02;;;;;;;;;;;24.70;35.90;;;;;;1573611;75;1937;-65
2022/03/06 12:00:20;;;;;;;;;;;24.80;35.80;;;;;;1575030;73;736;-63
2022/03/06 12:02:22;;;;;;;;;;;24.70;35.80;;;;;;1575035;75;712;-63
2022/03/06 12:04:28;;;;;;;;;;;24.70;35.70;;;;;;1575011;75;800;-63
2022/03/06 12:06:29;;;;;;;;;;;24.70;35.70;;;;;;1575040;75;709;-63
2022/03/06 12:08:33;;;;;;;;;;;24.70;35.70;;;;;;1565657;73;1163;-66